Time;durP1;ratioP1;P1;durP2;ratioP2;P2;SDS_P1;SDS_P2;PMS_P1;PMS_P2;Temp;Humidity;BMP_temperature;BMP_pressure;BME280_temperature;BME280_humidity;BME280_pressure;Samples;Min_cycle;Max_cycle;Signal;HPM_P1;HPM_P2
2024/01/24 00:00:52;;;;;;;14.13;8.73;;;;;;;;;;2097404;28;20044;-46
2024/01/24 00:01:53;;;;;;;15.43;8.40;;;;;;;;;;2100157;28;20456;-42
2024/01/24 00:02:54;;;;;;;14.13;8.68;;;;;;;;;;2106649;28;20012;-46
2024/01/24 00:03:56;;;;;;;14.52;9.07;;;;;;;;;;2101693;28;20015;-44
2024/01/24 00:04:57;;;;;;;14.50;8.60;;;;;;;;;;2098675;28;20119;-45
2024/01/24 00:05:58;;;;;;;14.05;8.38;;;;;;;;;;2106545;28;20012;-47
2024/01/24 00:06:59;;;;;;;14.63;8.02;;;;;;;;;;2106329;28;20549;-45
2024/01/24 00:08:01;;;;;;;16.05;9.00;;;;;;;;;;2106506;28;20020;-46
2024/01/24 00:09:05;;;;;;;15.52;8.57;;;;;;;;;;2099130;28;20025;-45
2024/01/24 00:10:06;;;;;;;16.38;9.45;;;;;;;;;;2101193;28;20115;-46
2024/01/24 00:11:07;;;;;;;16.83;9.50;;;;;;;;;;2091177;28;20036;-45
2024/01/24 00:12:09;;;;;;;13.73;8.20;;;;;;;;;;2095156;28;20040;-46
2024/01/24 00:13:10;;;;;;;16.88;8.65;;;;;;;;;;2098630;28;20024;-45
2024/01/24 00:14:11;;;;;;;13.07;8.55;;;;;;;;;;2089184;28;20032;-46
2024/01/24 00:15:13;;;;;;;14.90;8.75;;;;;;;;;;2094197;28;20052;-45
2024/01/24 00:16:14;;;;;;;14.93;9.00;;;;;;;;;;2098282;28;20040;-44
2024/01/24 00:17:15;;;;;;;16.35;9.18;;;;;;;;;;2106275;28;20077;-45
2024/01/24 00:18:16;;;;;;;14.82;8.57;;;;;;;;;;2103055;28;20071;-44
2024/01/24 00:19:18;;;;;;;14.27;9.40;;;;;;;;;;2105795;28;20020;-44
2024/01/24 00:20:19;;;;;;;20.48;9.18;;;;;;;;;;2106359;28;20020;-45
2024/01/24 00:21:20;;;;;;;14.70;9.00;;;;;;;;;;2106193;28;20017;-45
2024/01/24 00:22:21;;;;;;;13.13;8.80;;;;;;;;;;2106370;28;20020;-47
2024/01/24 00:23:24;;;;;;;12.45;8.18;;;;;;;;;;2106286;28;20024;-45
2024/01/24 00:24:26;;;;;;;12.75;8.63;;;;;;;;;;2106228;28;20149;-46
2024/01/24 00:25:27;;;;;;;13.65;8.90;;;;;;;;;;2106532;28;20039;-44
2024/01/24 00:26:28;;;;;;;13.30;8.48;;;;;;;;;;2106253;28;20091;-45
2024/01/24 00:27:30;;;;;;;15.02;8.65;;;;;;;;;;2106504;28;20081;-44
2024/01/24 00:28:32;;;;;;;13.93;9.18;;;;;;;;;;2106225;28;20020;-44
2024/01/24 00:29:33;;;;;;;13.38;8.88;;;;;;;;;;2106199;28;20024;-44
2024/01/24 00:30:34;;;;;;;15.63;9.20;;;;;;;;;;2106446;28;20020;-44
2024/01/24 00:31:36;;;;;;;16.20;9.63;;;;;;;;;;2099476;28;20065;-44
2024/01/24 00:32:37;;;;;;;12.40;8.55;;;;;;;;;;2096755;28;20028;-45
2024/01/24 00:33:38;;;;;;;13.90;8.95;;;;;;;;;;2097692;28;20722;-46
2024/01/24 00:34:39;;;;;;;13.25;9.40;;;;;;;;;;2106339;28;20028;-46
2024/01/24 00:35:41;;;;;;;15.70;9.35;;;;;;;;;;2106837;28;20107;-45
2024/01/24 00:36:42;;;;;;;13.90;8.50;;;;;;;;;;2106800;28;20020;-45
2024/01/24 00:37:43;;;;;;;16.08;10.45;;;;;;;;;;2106123;28;20032;-45
2024/01/24 00:38:45;;;;;;;16.38;9.27;;;;;;;;;;2106609;28;20024;-45
2024/01/24 00:39:47;;;;;;;13.20;8.43;;;;;;;;;;2106162;28;20043;-44
2024/01/24 00:40:48;;;;;;;15.55;9.20;;;;;;;;;;2097380;28;20024;-46
2024/01/24 00:41:49;;;;;;;12.77;8.52;;;;;;;;;;2097691;28;20525;-48
2024/01/24 00:42:51;;;;;;;14.45;9.02;;;;;;;;;;2106504;28;20020;-47
2024/01/24 00:43:52;;;;;;;14.73;9.38;;;;;;;;;;2097566;28;20032;-44
2024/01/24 00:44:53;;;;;;;14.27;9.30;;;;;;;;;;2097478;28;20029;-46
2024/01/24 00:45:55;;;;;;;13.63;8.55;;;;;;;;;;2106232;28;20081;-46
2024/01/24 00:46:57;;;;;;;12.70;8.98;;;;;;;;;;2106523;28;20016;-45
2024/01/24 00:47:58;;;;;;;12.57;8.60;;;;;;;;;;2106309;28;20434;-47
2024/01/24 00:48:59;;;;;;;12.93;8.43;;;;;;;;;;2106268;28;20062;-46
2024/01/24 00:50:00;;;;;;;12.13;8.68;;;;;;;;;;2106423;28;20497;-46
2024/01/24 00:51:03;;;;;;;13.60;8.30;;;;;;;;;;2103295;28;20073;-46
2024/01/24 00:52:04;;;;;;;14.43;8.88;;;;;;;;;;2099058;28;20028;-47
2024/01/24 00:53:06;;;;;;;15.30;8.55;;;;;;;;;;2106425;28;20041;-46
2024/01/24 00:54:07;;;;;;;17.17;8.75;;;;;;;;;;2097196;28;20036;-45
2024/01/24 00:55:09;;;;;;;15.85;9.65;;;;;;;;;;2097491;28;20024;-46
2024/01/24 00:56:11;;;;;;;13.20;8.93;;;;;;;;;;2105893;28;20033;-47
2024/01/24 00:57:12;;;;;;;14.68;9.25;;;;;;;;;;2105775;28;20015;-45
2024/01/24 00:58:13;;;;;;;13.18;8.70;;;;;;;;;;2106237;28;20425;-46
2024/01/24 00:59:15;;;;;;;15.40;8.85;;;;;;;;;;2105991;28;20024;-45
2024/01/24 01:00:16;;;;;;;12.98;8.88;;;;;;;;;;2105860;28;20458;-47
2024/01/24 01:01:17;;;;;;;12.43;8.52;;;;;;;;;;2106370;28;20069;-44
2024/01/24 01:02:19;;;;;;;15.07;9.10;;;;;;;;;;2106026;28;20032;-47
2024/01/24 01:03:20;;;;;;;13.95;9.38;;;;;;;;;;2106211;28;20016;-44
2024/01/24 01:04:21;;;;;;;13.55;9.13;;;;;;;;;;2106258;28;20165;-47
2024/01/24 01:05:23;;;;;;;15.18;9.25;;;;;;;;;;2106046;28;20335;-45
2024/01/24 01:06:26;;;;;;;14.02;8.95;;;;;;;;;;2106322;28;20066;-46
2024/01/24 01:07:27;;;;;;;14.20;8.77;;;;;;;;;;2105997;28;20081;-45
2024/01/24 01:08:28;;;;;;;13.13;8.93;;;;;;;;;;2097015;28;20040;-45
2024/01/24 01:09:29;;;;;;;13.80;8.48;;;;;;;;;;2097349;28;20020;-45
2024/01/24 01:10:33;;;;;;;13.20;8.88;;;;;;;;;;2105771;28;20081;-45
2024/01/24 01:11:34;;;;;;;15.88;9.65;;;;;;;;;;2106148;28;20020;-43
2024/01/24 01:12:36;;;;;;;14.30;9.25;;;;;;;;;;2097201;28;20019;-47
2024/01/24 01:13:37;;;;;;;13.07;8.25;;;;;;;;;;2096972;28;20008;-46
2024/01/24 01:14:38;;;;;;;13.07;8.65;;;;;;;;;;2088880;28;20017;-43
2024/01/24 01:15:39;;;;;;;14.13;8.38;;;;;;;;;;2097175;28;20024;-46
2024/01/24 01:16:41;;;;;;;13.40;8.43;;;;;;;;;;2105051;28;20047;-45
2024/01/24 01:17:42;;;;;;;13.68;8.52;;;;;;;;;;2106037;28;20034;-46
2024/01/24 01:18:43;;;;;;;15.35;9.30;;;;;;;;;;2105901;28;20016;-44
2024/01/24 01:19:45;;;;;;;12.30;8.43;;;;;;;;;;2105746;28;20164;-45
2024/01/24 01:20:46;;;;;;;17.40;9.13;;;;;;;;;;2106007;28;20024;-46
2024/01/24 01:21:47;;;;;;;12.73;8.52;;;;;;;;;;2104715;28;20004;-45
2024/01/24 01:22:48;;;;;;;14.38;8.88;;;;;;;;;;2097926;28;20076;-44
2024/01/24 01:23:50;;;;;;;13.23;7.70;;;;;;;;;;2106092;28;20024;-45
2024/01/24 01:24:51;;;;;;;15.25;8.70;;;;;;;;;;2105927;28;20051;-47
2024/01/24 01:25:53;;;;;;;14.35;9.07;;;;;;;;;;2106209;28;20035;-46
2024/01/24 01:26:54;;;;;;;14.05;9.30;;;;;;;;;;2106014;28;20076;-46
2024/01/24 01:27:55;;;;;;;14.38;8.35;;;;;;;;;;2105824;28;20475;-46
2024/01/24 01:28:57;;;;;;;15.40;9.32;;;;;;;;;;2106139;28;20039;-45
2024/01/24 01:29:58;;;;;;;12.10;8.63;;;;;;;;;;2096718;28;20032;-46
2024/01/24 01:30:59;;;;;;;13.30;8.25;;;;;;;;;;2095659;28;20174;-47
2024/01/24 01:32:01;;;;;;;14.25;9.02;;;;;;;;;;2104419;28;20039;-44
2024/01/24 01:33:02;;;;;;;14.77;8.82;;;;;;;;;;2105870;28;20024;-45
2024/01/24 01:34:04;;;;;;;15.68;8.48;;;;;;;;;;2105422;28;20015;-45
2024/01/24 01:35:06;;;;;;;13.50;8.80;;;;;;;;;;2105758;28;20024;-45
2024/01/24 01:36:07;;;;;;;10.75;7.75;;;;;;;;;;2097091;28;20023;-47
2024/01/24 01:37:08;;;;;;;14.02;8.25;;;;;;;;;;2096923;28;20062;-47
2024/01/24 01:38:09;;;;;;;13.05;8.60;;;;;;;;;;2096607;28;20457;-44
2024/01/24 01:39:11;;;;;;;12.02;8.27;;;;;;;;;;2097133;28;20021;-45
2024/01/24 01:40:12;;;;;;;13.32;8.13;;;;;;;;;;2105358;28;20119;-46
2024/01/24 01:41:13;;;;;;;14.10;8.63;;;;;;;;;;2105831;28;20094;-45
2024/01/24 01:42:14;;;;;;;11.45;7.72;;;;;;;;;;2105913;28;20110;-47
2024/01/24 01:43:16;;;;;;;11.90;7.82;;;;;;;;;;2105757;28;20048;-47
2024/01/24 01:44:17;;;;;;;12.27;7.75;;;;;;;;;;2096821;28;20028;-45
2024/01/24 01:45:19;;;;;;;12.50;7.90;;;;;;;;;;2097053;28;20009;-46
2024/01/24 01:46:21;;;;;;;13.95;8.90;;;;;;;;;;2103393;28;20023;-45
2024/01/24 01:47:23;;;;;;;12.75;8.02;;;;;;;;;;2105832;28;20008;-45
2024/01/24 01:48:25;;;;;;;12.88;7.93;;;;;;;;;;2105826;28;20097;-45
2024/01/24 01:49:26;;;;;;;11.68;7.88;;;;;;;;;;2105808;28;20055;-45
2024/01/24 01:50:27;;;;;;;10.40;7.90;;;;;;;;;;2106006;28;20024;-46
2024/01/24 01:51:29;;;;;;;13.48;8.38;;;;;;;;;;2096758;28;20183;-46
2024/01/24 01:52:31;;;;;;;14.70;9.27;;;;;;;;;;2096972;28;20028;-46
2024/01/24 01:53:38;;;;;;;16.45;8.70;;;;;;;;;;2104064;28;20096;-44
2024/01/24 01:54:41;;;;;;;13.23;8.43;;;;;;;;;;2101548;28;20487;-47
2024/01/24 01:55:43;;;;;;;13.60;8.95;;;;;;;;;;2105990;28;20016;-46
2024/01/24 01:56:44;;;;;;;12.82;8.50;;;;;;;;;;2105788;28;20020;-46
2024/01/24 01:57:46;;;;;;;12.02;8.20;;;;;;;;;;2105317;28;20016;-46
2024/01/24 01:58:49;;;;;;;13.77;8.40;;;;;;;;;;2100028;28;20044;-51
2024/01/24 01:59:50;;;;;;;13.52;8.68;;;;;;;;;;2105802;28;20031;-47
2024/01/24 02:00:52;;;;;;;13.20;8.27;;;;;;;;;;2105212;28;20028;-44
2024/01/24 02:01:55;;;;;;;10.85;8.20;;;;;;;;;;2105889;28;20024;-44
2024/01/24 02:02:56;;;;;;;10.25;7.47;;;;;;;;;;2105667;28;20073;-46
2024/01/24 02:03:59;;;;;;;14.07;8.73;;;;;;;;;;2096629;28;20511;-45
2024/01/24 02:05:01;;;;;;;14.93;8.70;;;;;;;;;;2096985;28;20012;-46
2024/01/24 02:06:02;;;;;;;14.88;8.70;;;;;;;;;;2105919;28;20016;-44
2024/01/24 02:07:03;;;;;;;14.10;9.00;;;;;;;;;;2105624;28;20018;-45
2024/01/24 02:08:05;;;;;;;12.00;8.60;;;;;;;;;;2105430;28;20091;-44
2024/01/24 02:09:09;;;;;;;13.77;8.20;;;;;;;;;;2105948;28;20020;-47
2024/01/24 02:10:14;;;;;;;11.20;8.32;;;;;;;;;;2105112;28;20020;-46
2024/01/24 02:11:16;;;;;;;12.80;8.10;;;;;;;;;;2105560;28;20036;-46
2024/01/24 02:12:19;;;;;;;14.32;8.85;;;;;;;;;;2105733;28;20016;-46
2024/01/24 02:13:20;;;;;;;14.23;9.20;;;;;;;;;;2105364;28;20368;-45
2024/01/24 02:14:22;;;;;;;13.48;8.73;;;;;;;;;;2096413;28;20021;-46
2024/01/24 02:15:23;;;;;;;10.23;7.68;;;;;;;;;;2094504;28;20893;-45
2024/01/24 02:16:24;;;;;;;12.90;8.65;;;;;;;;;;2100072;28;20035;-46
2024/01/24 02:17:25;;;;;;;13.20;9.27;;;;;;;;;;2105582;28;20039;-46
2024/01/24 02:18:27;;;;;;;12.85;8.65;;;;;;;;;;2105580;28;20107;-46
2024/01/24 02:19:28;;;;;;;12.05;7.60;;;;;;;;;;2092621;28;20388;-45
2024/01/24 02:20:30;;;;;;;13.57;8.40;;;;;;;;;;2088444;28;20025;-45
2024/01/24 02:21:31;;;;;;;13.70;8.70;;;;;;;;;;2096595;28;20070;-45
2024/01/24 02:22:32;;;;;;;12.98;8.65;;;;;;;;;;2105222;28;20016;-46
2024/01/24 02:23:34;;;;;;;10.70;7.60;;;;;;;;;;2105601;28;20078;-46
2024/01/24 02:24:35;;;;;;;12.90;8.48;;;;;;;;;;2105552;28;20061;-46
2024/01/24 02:25:37;;;;;;;11.75;8.18;;;;;;;;;;2105662;28;20195;-45
2024/01/24 02:26:38;;;;;;;14.95;8.55;;;;;;;;;;2105766;28;20467;-44
2024/01/24 02:27:40;;;;;;;12.63;8.52;;;;;;;;;;2094741;28;20045;-45
2024/01/24 02:28:41;;;;;;;14.38;8.05;;;;;;;;;;2089868;28;20025;-49
2024/01/24 02:29:42;;;;;;;12.77;7.93;;;;;;;;;;2100227;28;20034;-51
2024/01/24 02:30:44;;;;;;;12.35;7.63;;;;;;;;;;2102163;28;20085;-43
2024/01/24 02:31:45;;;;;;;11.63;8.13;;;;;;;;;;2096461;28;20022;-43
2024/01/24 02:32:46;;;;;;;10.85;8.10;;;;;;;;;;2096723;28;20019;-45
2024/01/24 02:33:48;;;;;;;12.32;8.10;;;;;;;;;;2100608;28;20066;-45
2024/01/24 02:34:49;;;;;;;13.00;8.82;;;;;;;;;;2105573;28;20059;-45
2024/01/24 02:35:50;;;;;;;14.18;8.80;;;;;;;;;;2105454;28;20020;-45
2024/01/24 02:36:52;;;;;;;13.15;8.32;;;;;;;;;;2096772;28;20028;-45
2024/01/24 02:37:53;;;;;;;13.80;7.82;;;;;;;;;;2096619;28;20039;-45
2024/01/24 02:38:54;;;;;;;14.98;8.80;;;;;;;;;;2102872;28;20012;-44
2024/01/24 02:39:56;;;;;;;16.13;8.65;;;;;;;;;;2095044;28;20070;-43
2024/01/24 02:40:57;;;;;;;13.57;8.80;;;;;;;;;;2091925;28;20058;-44
2024/01/24 02:41:58;;;;;;;13.98;8.90;;;;;;;;;;2097376;28;20017;-45
2024/01/24 02:42:59;;;;;;;12.35;8.43;;;;;;;;;;2104275;28;20077;-44
2024/01/24 02:44:00;;;;;;;14.45;8.85;;;;;;;;;;2095181;28;20012;-45
2024/01/24 02:45:02;;;;;;;13.57;8.57;;;;;;;;;;2096612;28;20443;-44
2024/01/24 02:46:03;;;;;;;13.02;8.82;;;;;;;;;;2096360;28;20025;-44
2024/01/24 02:47:05;;;;;;;12.80;8.13;;;;;;;;;;2096691;28;20024;-44
2024/01/24 02:48:06;;;;;;;14.07;8.88;;;;;;;;;;2096678;28;20048;-44
2024/01/24 02:49:07;;;;;;;13.65;8.80;;;;;;;;;;2096560;28;20004;-45
2024/01/24 02:50:09;;;;;;;14.15;8.68;;;;;;;;;;2097063;28;20091;-45
2024/01/24 02:51:10;;;;;;;12.88;8.43;;;;;;;;;;2105018;28;20108;-46
2024/01/24 02:52:11;;;;;;;12.25;8.27;;;;;;;;;;2087654;28;20036;-45
2024/01/24 02:53:13;;;;;;;12.07;8.50;;;;;;;;;;2088496;28;20048;-43
2024/01/24 02:54:14;;;;;;;12.52;8.45;;;;;;;;;;2104729;28;20032;-45
2024/01/24 02:55:15;;;;;;;13.07;8.52;;;;;;;;;;2105484;28;20131;-43
2024/01/24 02:56:17;;;;;;;13.57;8.60;;;;;;;;;;2105683;28;20387;-45
2024/01/24 02:57:18;;;;;;;14.80;8.82;;;;;;;;;;2105481;28;20103;-45
2024/01/24 02:58:19;;;;;;;11.30;8.05;;;;;;;;;;2105549;28;20013;-44
2024/01/24 02:59:20;;;;;;;13.65;8.23;;;;;;;;;;2105559;28;20072;-45
2024/01/24 03:00:22;;;;;;;11.30;7.88;;;;;;;;;;2105652;28;20016;-44
2024/01/24 03:01:23;;;;;;;13.45;8.52;;;;;;;;;;2105509;28;20016;-44
2024/01/24 03:02:24;;;;;;;13.07;8.80;;;;;;;;;;2105419;28;20112;-43
2024/01/24 03:03:26;;;;;;;11.75;8.20;;;;;;;;;;2105403;28;20024;-45
2024/01/24 03:04:27;;;;;;;13.43;8.70;;;;;;;;;;2105480;28;20024;-44
2024/01/24 03:05:29;;;;;;;11.65;7.68;;;;;;;;;;2105336;28;20005;-46
2024/01/24 03:06:30;;;;;;;9.93;7.47;;;;;;;;;;2105504;28;20062;-44
2024/01/24 03:07:31;;;;;;;13.70;8.10;;;;;;;;;;2105576;28;20020;-44
2024/01/24 03:08:48;;;;;;;14.23;7.85;;;;;;;;;;2096314;28;20107;-44
2024/01/24 03:09:49;;;;;;;11.85;7.60;;;;;;;;;;2098024;28;20009;-44
2024/01/24 03:10:51;;;;;;;14.10;8.38;;;;;;;;;;2105515;28;20107;-45
2024/01/24 03:11:52;;;;;;;12.95;7.50;;;;;;;;;;2096265;28;20013;-45
2024/01/24 03:12:53;;;;;;;12.45;7.53;;;;;;;;;;2096673;28;20020;-45
2024/01/24 03:13:56;;;;;;;11.93;8.35;;;;;;;;;;2097561;28;20118;-45
2024/01/24 03:14:57;;;;;;;13.13;7.80;;;;;;;;;;2091994;28;20039;-45
2024/01/24 03:16:00;;;;;;;11.48;8.20;;;;;;;;;;2096323;28;20027;-45
2024/01/24 03:17:01;;;;;;;12.32;8.50;;;;;;;;;;2104556;28;20425;-46
2024/01/24 03:18:02;;;;;;;9.77;7.18;;;;;;;;;;2105478;28;20031;-45
2024/01/24 03:19:05;;;;;;;11.60;8.25;;;;;;;;;;2105435;28;20012;-45
2024/01/24 03:20:07;;;;;;;11.10;7.70;;;;;;;;;;2105242;28;20051;-45
2024/01/24 03:21:09;;;;;;;13.35;8.20;;;;;;;;;;2105478;28;20460;-43
2024/01/24 03:22:10;;;;;;;14.10;7.60;;;;;;;;;;2104134;28;20004;-44
2024/01/24 03:23:12;;;;;;;13.10;8.10;;;;;;;;;;2104940;28;20111;-44
2024/01/24 03:24:13;;;;;;;12.40;7.72;;;;;;;;;;2105445;28;20047;-46
2024/01/24 03:25:18;;;;;;;13.13;8.10;;;;;;;;;;2100911;28;20108;-44
2024/01/24 03:26:19;;;;;;;11.75;7.70;;;;;;;;;;2096996;28;20031;-44
2024/01/24 03:27:21;;;;;;;11.98;7.95;;;;;;;;;;2097008;28;20126;-44
2024/01/24 03:28:22;;;;;;;13.10;7.78;;;;;;;;;;2103660;28;20103;-46
2024/01/24 03:29:24;;;;;;;13.02;7.88;;;;;;;;;;2105395;28;20013;-45
2024/01/24 03:30:25;;;;;;;12.80;7.93;;;;;;;;;;2105429;28;20031;-45
2024/01/24 03:31:26;;;;;;;12.13;7.60;;;;;;;;;;2105219;28;20441;-43
2024/01/24 03:32:27;;;;;;;12.20;8.23;;;;;;;;;;2104855;28;20052;-45
2024/01/24 03:33:29;;;;;;;11.60;7.72;;;;;;;;;;2098050;28;20074;-45
2024/01/24 03:34:30;;;;;;;11.48;8.10;;;;;;;;;;2102489;28;20044;-43
2024/01/24 03:35:32;;;;;;;9.93;6.97;;;;;;;;;;2107130;28;20066;-46
2024/01/24 03:36:33;;;;;;;11.20;7.50;;;;;;;;;;2106658;28;20028;-45
2024/01/24 03:37:34;;;;;;;11.25;7.60;;;;;;;;;;2106874;28;20035;-45
2024/01/24 03:38:36;;;;;;;12.73;7.82;;;;;;;;;;2106833;28;20020;-45
2024/01/24 03:39:37;;;;;;;11.65;7.35;;;;;;;;;;2106607;28;20012;-45
2024/01/24 03:40:38;;;;;;;11.32;7.90;;;;;;;;;;2099288;28;20187;-45
2024/01/24 03:41:39;;;;;;;11.20;7.30;;;;;;;;;;2098527;28;20024;-45
2024/01/24 03:42:41;;;;;;;13.48;7.18;;;;;;;;;;2094194;28;20192;-45
2024/01/24 03:43:42;;;;;;;10.30;7.18;;;;;;;;;;2098120;28;20032;-47
2024/01/24 03:44:43;;;;;;;12.98;7.95;;;;;;;;;;2106481;28;20120;-45
2024/01/24 03:45:45;;;;;;;13.13;6.97;;;;;;;;;;2106826;28;20031;-46
2024/01/24 03:46:46;;;;;;;14.48;8.63;;;;;;;;;;2106878;28;20020;-45
2024/01/24 03:47:49;;;;;;;12.05;7.53;;;;;;;;;;2103520;28;20426;-46
2024/01/24 03:48:50;;;;;;;13.82;8.27;;;;;;;;;;2100400;28;20483;-47
2024/01/24 03:49:51;;;;;;;12.63;7.72;;;;;;;;;;2106825;28;20040;-44
2024/01/24 03:50:53;;;;;;;11.55;7.75;;;;;;;;;;2106744;28;20012;-46
2024/01/24 03:51:54;;;;;;;11.57;7.43;;;;;;;;;;2106835;28;20383;-46
2024/01/24 03:52:55;;;;;;;10.60;6.53;;;;;;;;;;2106777;28;20048;-46
2024/01/24 03:53:57;;;;;;;9.98;7.43;;;;;;;;;;2106490;28;20016;-45
2024/01/24 03:54:58;;;;;;;12.65;7.63;;;;;;;;;;2098317;28;20040;-47
2024/01/24 03:55:59;;;;;;;12.55;7.45;;;;;;;;;;2105555;28;20035;-46
2024/01/24 03:57:00;;;;;;;10.60;6.95;;;;;;;;;;2106768;28;20527;-45
2024/01/24 03:58:02;;;;;;;9.52;6.68;;;;;;;;;;2106718;28;20782;-46
2024/01/24 03:59:03;;;;;;;10.60;7.50;;;;;;;;;;2106559;28;20061;-45
2024/01/24 04:00:06;;;;;;;11.15;7.10;;;;;;;;;;2105525;28;20032;-46
2024/01/24 04:01:07;;;;;;;10.27;7.00;;;;;;;;;;2098351;28;20549;-46
2024/01/24 04:02:08;;;;;;;13.35;7.28;;;;;;;;;;2094073;28;20118;-46
2024/01/24 04:03:09;;;;;;;10.55;6.93;;;;;;;;;;2097880;28;20510;-46
2024/01/24 04:04:10;;;;;;;10.45;7.55;;;;;;;;;;2106248;28;20016;-46
2024/01/24 04:05:12;;;;;;;12.02;7.88;;;;;;;;;;2106753;28;20032;-46
2024/01/24 04:06:13;;;;;;;12.15;7.15;;;;;;;;;;2106625;28;20016;-46
2024/01/24 04:07:14;;;;;;;10.50;6.53;;;;;;;;;;2097409;28;20055;-46
2024/01/24 04:08:15;;;;;;;10.75;7.35;;;;;;;;;;2097604;28;20091;-46
2024/01/24 04:09:17;;;;;;;14.32;7.85;;;;;;;;;;2106331;28;20146;-45
2024/01/24 04:10:18;;;;;;;10.75;7.38;;;;;;;;;;2109903;28;20024;-45
2024/01/24 04:11:19;;;;;;;11.57;7.40;;;;;;;;;;2097709;28;20040;-46
2024/01/24 04:12:21;;;;;;;9.40;6.97;;;;;;;;;;2097615;28;20048;-43
2024/01/24 04:13:22;;;;;;;10.77;7.57;;;;;;;;;;2102581;28;20018;-45
2024/01/24 04:14:23;;;;;;;11.20;6.95;;;;;;;;;;2100717;28;20078;-45
2024/01/24 04:15:27;;;;;;;9.95;6.95;;;;;;;;;;2106008;28;20028;-43
2024/01/24 04:16:28;;;;;;;10.15;6.85;;;;;;;;;;2106272;28;20380;-44
2024/01/24 04:17:30;;;;;;;9.52;7.03;;;;;;;;;;2106546;28;20130;-45
2024/01/24 04:18:33;;;;;;;9.88;6.75;;;;;;;;;;2106427;28;20084;-46
2024/01/24 04:19:34;;;;;;;10.27;7.40;;;;;;;;;;2105691;28;20419;-43
2024/01/24 04:20:36;;;;;;;10.40;6.53;;;;;;;;;;2103350;28;20382;-45
2024/01/24 04:21:43;;;;;;;11.68;6.90;;;;;;;;;;2106294;28;20012;-46
2024/01/24 04:22:44;;;;;;;11.32;7.00;;;;;;;;;;2106597;28;20483;-46
2024/01/24 04:23:46;;;;;;;11.35;7.60;;;;;;;;;;2097647;28;20021;-44
2024/01/24 04:24:47;;;;;;;11.75;7.10;;;;;;;;;;2097257;28;20016;-44
2024/01/24 04:25:49;;;;;;;9.82;6.53;;;;;;;;;;2106781;28;20402;-48
2024/01/24 04:26:50;;;;;;;9.63;6.50;;;;;;;;;;2106542;28;20016;-46
2024/01/24 04:27:52;;;;;;;9.57;6.60;;;;;;;;;;2106315;28;20046;-46
2024/01/24 04:28:53;;;;;;;10.30;7.07;;;;;;;;;;2106692;28;20024;-46
2024/01/24 04:29:54;;;;;;;9.13;6.32;;;;;;;;;;2106515;28;20012;-46
2024/01/24 04:30:56;;;;;;;10.82;7.28;;;;;;;;;;2106535;28;20390;-45
2024/01/24 04:31:57;;;;;;;9.82;6.68;;;;;;;;;;2106502;28;20031;-46
2024/01/24 04:32:59;;;;;;;8.95;6.38;;;;;;;;;;2106247;28;20490;-46
2024/01/24 04:34:00;;;;;;;9.55;6.57;;;;;;;;;;2104085;28;20031;-46
2024/01/24 04:35:01;;;;;;;9.07;6.30;;;;;;;;;;2105892;28;20035;-45
2024/01/24 04:36:03;;;;;;;8.35;5.95;;;;;;;;;;2106389;28;20016;-47
2024/01/24 04:37:04;;;;;;;10.77;6.78;;;;;;;;;;2106493;28;20095;-47
2024/01/24 04:38:05;;;;;;;10.45;6.03;;;;;;;;;;2106333;28;20076;-46
2024/01/24 04:39:06;;;;;;;12.60;7.28;;;;;;;;;;2106338;28;20020;-46
2024/01/24 04:40:08;;;;;;;9.02;6.47;;;;;;;;;;2102931;28;20544;-47
2024/01/24 04:41:09;;;;;;;10.55;7.13;;;;;;;;;;2094332;28;20017;-46
2024/01/24 04:42:11;;;;;;;11.07;7.28;;;;;;;;;;2096937;28;20075;-47
2024/01/24 04:43:12;;;;;;;9.85;6.85;;;;;;;;;;2098091;28;20522;-46
2024/01/24 04:44:14;;;;;;;10.30;6.63;;;;;;;;;;2101915;28;20039;-46
2024/01/24 04:45:15;;;;;;;11.70;6.50;;;;;;;;;;2105986;28;20027;-45
2024/01/24 04:46:17;;;;;;;10.85;7.10;;;;;;;;;;2106317;28;20012;-44
2024/01/24 04:47:18;;;;;;;10.02;6.90;;;;;;;;;;2106197;28;20020;-46
2024/01/24 04:48:19;;;;;;;10.00;6.45;;;;;;;;;;2106427;28;20028;-44
2024/01/24 04:49:21;;;;;;;10.27;6.32;;;;;;;;;;2106029;28;20103;-45
2024/01/24 04:50:22;;;;;;;10.82;6.93;;;;;;;;;;2106234;28;20416;-44
2024/01/24 04:51:23;;;;;;;10.07;6.45;;;;;;;;;;2097378;28;20029;-44
2024/01/24 04:52:25;;;;;;;8.32;6.05;;;;;;;;;;2097230;28;20033;-46
2024/01/24 04:53:26;;;;;;;10.90;5.97;;;;;;;;;;2106607;28;20034;-45
2024/01/24 04:54:28;;;;;;;8.32;6.05;;;;;;;;;;2100077;28;20356;-45
2024/01/24 04:55:29;;;;;;;11.65;6.72;;;;;;;;;;2091844;28;20034;-45
2024/01/24 04:56:30;;;;;;;10.00;6.60;;;;;;;;;;2097413;28;20399;-51
2024/01/24 04:57:31;;;;;;;8.95;5.95;;;;;;;;;;2104385;28;20048;-45
2024/01/24 04:58:33;;;;;;;10.02;6.35;;;;;;;;;;2106014;28;20491;-46
2024/01/24 04:59:34;;;;;;;9.48;6.47;;;;;;;;;;2106368;28;20488;-46
2024/01/24 05:00:36;;;;;;;9.63;6.70;;;;;;;;;;2105975;28;20107;-46
2024/01/24 05:01:37;;;;;;;8.40;6.30;;;;;;;;;;2097265;28;20039;-45
2024/01/24 05:02:39;;;;;;;9.50;6.30;;;;;;;;;;2097456;28;20009;-45
2024/01/24 05:03:40;;;;;;;10.95;6.63;;;;;;;;;;2106172;28;20042;-46
2024/01/24 05:04:42;;;;;;;11.20;6.25;;;;;;;;;;2097362;28;20025;-46
2024/01/24 05:05:43;;;;;;;9.50;6.32;;;;;;;;;;2089821;28;20033;-46
2024/01/24 05:06:44;;;;;;;9.35;6.38;;;;;;;;;;2100568;28;20597;-45
2024/01/24 05:07:45;;;;;;;8.27;6.20;;;;;;;;;;2106266;28;20119;-47
2024/01/24 05:08:47;;;;;;;9.40;6.22;;;;;;;;;;2104776;28;20012;-44
2024/01/24 05:09:48;;;;;;;8.63;5.85;;;;;;;;;;2105962;28;20024;-47
2024/01/24 05:10:50;;;;;;;8.35;6.25;;;;;;;;;;2106348;28;20386;-45
2024/01/24 05:11:51;;;;;;;8.60;6.30;;;;;;;;;;2097122;28;20058;-45
2024/01/24 05:12:52;;;;;;;9.15;6.60;;;;;;;;;;2097430;28;20108;-46
2024/01/24 05:13:55;;;;;;;10.73;6.72;;;;;;;;;;2095220;28;20347;-45
2024/01/24 05:14:57;;;;;;;9.48;6.50;;;;;;;;;;2084115;28;20013;-44
2024/01/24 05:16:01;;;;;;;10.77;6.88;;;;;;;;;;2097330;28;20017;-45
2024/01/24 05:17:04;;;;;;;8.27;6.05;;;;;;;;;;2105960;28;20016;-46
2024/01/24 05:18:06;;;;;;;9.40;6.13;;;;;;;;;;2106008;28;20035;-45
2024/01/24 05:19:08;;;;;;;8.95;6.90;;;;;;;;;;2106283;28;20024;-43
2024/01/24 05:20:10;;;;;;;8.68;6.57;;;;;;;;;;2105685;28;20119;-45
2024/01/24 05:21:12;;;;;;;9.38;6.22;;;;;;;;;;2106077;28;20470;-45
2024/01/24 05:22:13;;;;;;;9.95;6.15;;;;;;;;;;2106198;28;20028;-45
2024/01/24 05:23:14;;;;;;;10.95;6.60;;;;;;;;;;2105792;28;20032;-46
2024/01/24 05:24:16;;;;;;;9.00;6.28;;;;;;;;;;2106274;28;20012;-46
2024/01/24 05:25:17;;;;;;;8.07;5.80;;;;;;;;;;2106178;28;20023;-46
2024/01/24 05:26:18;;;;;;;8.73;6.18;;;;;;;;;;2106083;28;20072;-44
2024/01/24 05:27:20;;;;;;;8.23;6.43;;;;;;;;;;2106192;28;20374;-45
2024/01/24 05:28:21;;;;;;;9.43;6.57;;;;;;;;;;2101087;28;20112;-46
2024/01/24 05:29:22;;;;;;;8.48;5.70;;;;;;;;;;2099851;28;20092;-44
2024/01/24 05:30:25;;;;;;;9.75;6.82;;;;;;;;;;2106090;28;20016;-46
2024/01/24 05:31:26;;;;;;;9.23;6.35;;;;;;;;;;2105708;28;20476;-47
2024/01/24 05:32:27;;;;;;;8.27;5.65;;;;;;;;;;2104129;28;20036;-46
2024/01/24 05:33:28;;;;;;;8.85;5.72;;;;;;;;;;2105099;28;20364;-44
2024/01/24 05:34:30;;;;;;;8.52;6.05;;;;;;;;;;2102747;28;20031;-44
2024/01/24 05:35:31;;;;;;;9.98;6.68;;;;;;;;;;2097930;28;20035;-46
2024/01/24 05:36:32;;;;;;;7.97;5.72;;;;;;;;;;2102441;28;20108;-46
2024/01/24 05:37:33;;;;;;;11.23;6.47;;;;;;;;;;2102631;28;20032;-46
2024/01/24 05:38:35;;;;;;;8.73;6.25;;;;;;;;;;2097283;28;20028;-46
2024/01/24 05:39:36;;;;;;;9.38;7.03;;;;;;;;;;2096102;28;20103;-46
2024/01/24 05:40:37;;;;;;;10.93;6.65;;;;;;;;;;2105666;28;20031;-47
2024/01/24 05:41:39;;;;;;;10.23;6.13;;;;;;;;;;2106128;28;20383;-44
2024/01/24 05:42:40;;;;;;;7.90;5.97;;;;;;;;;;2096871;28;20024;-44
2024/01/24 05:43:41;;;;;;;7.72;5.47;;;;;;;;;;2096146;28;20051;-46
2024/01/24 05:44:42;;;;;;;17.27;12.52;;;;;;;;;;2105668;28;20070;-45
2024/01/24 05:45:44;;;;;;;15.88;10.77;;;;;;;;;;2102070;28;20028;-45
2024/01/24 05:46:45;;;;;;;10.27;7.03;;;;;;;;;;2097218;28;20055;-45
2024/01/24 05:47:46;;;;;;;9.40;6.50;;;;;;;;;;2096361;28;20008;-46
2024/01/24 05:48:48;;;;;;;9.13;6.35;;;;;;;;;;2104901;28;20440;-47
2024/01/24 05:49:49;;;;;;;9.20;6.13;;;;;;;;;;2106317;28;20052;-46
2024/01/24 05:50:50;;;;;;;9.60;6.50;;;;;;;;;;2106016;28;20012;-44
2024/01/24 05:51:52;;;;;;;7.68;5.72;;;;;;;;;;2106132;28;20430;-46
2024/01/24 05:52:53;;;;;;;9.07;5.72;;;;;;;;;;2097635;28;20568;-46
2024/01/24 05:53:55;;;;;;;9.55;6.22;;;;;;;;;;2092516;28;20020;-47
2024/01/24 05:54:56;;;;;;;10.23;6.25;;;;;;;;;;2097492;28;20055;-47
2024/01/24 05:55:57;;;;;;;9.68;6.00;;;;;;;;;;2105089;28;20399;-44
2024/01/24 05:56:59;;;;;;;8.43;5.82;;;;;;;;;;2104148;28;20030;-44
2024/01/24 05:58:01;;;;;;;10.75;6.25;;;;;;;;;;2105561;28;20047;-44
2024/01/24 05:59:02;;;;;;;7.82;5.80;;;;;;;;;;2105575;28;20016;-43
2024/01/24 06:00:08;;;;;;;9.35;5.97;;;;;;;;;;2092604;28;20025;-45
2024/01/24 06:01:09;;;;;;;8.48;5.55;;;;;;;;;;2097019;28;20025;-44
2024/01/24 06:02:10;;;;;;;10.35;6.25;;;;;;;;;;2105720;28;20016;-45
2024/01/24 06:03:12;;;;;;;7.68;5.47;;;;;;;;;;2105410;28;20024;-43
2024/01/24 06:04:13;;;;;;;10.65;6.28;;;;;;;;;;2105756;28;20024;-43
2024/01/24 06:05:15;;;;;;;8.27;5.70;;;;;;;;;;2105521;28;20027;-44